Time;durP1;ratioP1;P1;durP2;ratioP2;P2;SDS_P1;SDS_P2;PMS_P1;PMS_P2;Temp;Humidity;BMP_temperature;BMP_pressure;BME280_temperature;BME280_humidity;BME280_pressure;Samples;Min_cycle;Max_cycle;Signal;HPM_P1;HPM_P2
2023/10/30 00:02:17;;;;;;;22.23;15.75;;;;;;;;;;4940085;29;20047;-91
2023/10/30 00:04:50;;;;;;;23.20;15.85;;;;;;;;;;4922268;29;20051;-94
2023/10/30 00:07:19;;;;;;;29.58;16.65;;;;;;;;;;4922782;29;20024;-92
2023/10/30 00:12:34;;;;;;;28.10;15.95;;;;;;;;;;4939460;29;20031;-93
2023/10/30 00:15:09;;;;;;;28.92;17.25;;;;;;;;;;4922732;29;20389;-93
2023/10/30 00:17:38;;;;;;;22.45;17.67;;;;;;;;;;4922785;29;20062;-92
2023/10/30 00:20:07;;;;;;;23.02;18.17;;;;;;;;;;4924287;29;20131;-91
2023/10/30 00:22:33;;;;;;;20.08;14.55;;;;;;;;;;4924207;29;20126;-92
2023/10/30 00:25:02;;;;;;;22.77;16.45;;;;;;;;;;4923116;29;20111;-92
2023/10/30 00:27:29;;;;;;;23.00;17.27;;;;;;;;;;4922530;29;20054;-93
2023/10/30 00:29:58;;;;;;;21.27;16.95;;;;;;;;;;4922696;29;20059;-92
2023/10/30 00:32:33;;;;;;;18.80;14.75;;;;;;;;;;4930951;29;20012;-92
2023/10/30 00:35:08;;;;;;;21.70;15.38;;;;;;;;;;4918077;29;20135;-92
2023/10/30 00:37:43;;;;;;;22.60;14.95;;;;;;;;;;4903862;29;20051;-92
2023/10/30 00:40:13;;;;;;;19.45;14.73;;;;;;;;;;4903886;29;20401;-92
2023/10/30 00:42:39;;;;;;;23.13;13.52;;;;;;;;;;4904172;29;20119;-92
2023/10/30 00:45:14;;;;;;;10.65;9.07;;;;;;;;;;4899142;29;20052;-92
2023/10/30 00:47:49;;;;;;;11.50;8.85;;;;;;;;;;4883329;29;20033;-92
2023/10/30 00:50:17;;;;;;;14.32;10.80;;;;;;;;;;4883724;29;20037;-93
2023/10/30 00:52:44;;;;;;;24.17;16.15;;;;;;;;;;4883801;29;20489;-93
2023/10/30 00:55:13;;;;;;;25.38;18.35;;;;;;;;;;4884035;29;20037;-92
2023/10/30 01:00:44;;;;;;;20.10;16.00;;;;;;;;;;4899914;29;20180;-92
2023/10/30 01:03:28;;;;;;;21.90;15.73;;;;;;;;;;4880105;29;20044;-92
2023/10/30 01:06:03;;;;;;;24.10;17.70;;;;;;;;;;4879619;29;20041;-91
2023/10/30 01:08:38;;;;;;;17.77;13.60;;;;;;;;;;4846696;29;20082;-92
2023/10/30 01:20:14;;;;;;;24.20;17.35;;;;;;;;;;4843459;29;20101;-93
2023/10/30 01:22:43;;;;;;;30.88;18.63;;;;;;;;;;4843581;29;20555;-92
2023/10/30 01:25:18;;;;;;;23.48;17.17;;;;;;;;;;4843376;29;20049;-92
2023/10/30 01:27:44;;;;;;;21.33;16.80;;;;;;;;;;4843067;29;20488;-93
2023/10/30 01:30:14;;;;;;;18.80;12.20;;;;;;;;;;4842780;29;20145;-92
2023/10/30 01:32:43;;;;;;;19.25;15.40;;;;;;;;;;4842943;29;20463;-92
2023/10/30 01:35:09;;;;;;;21.20;14.98;;;;;;;;;;4876291;29;20096;-92
2023/10/30 01:37:58;;;;;;;20.33;15.18;;;;;;;;;;4861150;29;20045;-92
2023/10/30 01:40:33;;;;;;;23.67;16.52;;;;;;;;;;4806354;29;20555;-91
2023/10/30 01:43:02;;;;;;;24.70;14.48;;;;;;;;;;4825349;29;20518;-92
2023/10/30 01:45:28;;;;;;;22.15;14.90;;;;;;;;;;4873154;29;20045;-91
2023/10/30 01:48:03;;;;;;;13.15;10.45;;;;;;;;;;4898672;29;20695;-91
2023/10/30 01:50:32;;;;;;;18.83;11.95;;;;;;;;;;4898585;29;20048;-92
2023/10/30 01:52:58;;;;;;;20.45;14.32;;;;;;;;;;4898749;29;20037;-93
2023/10/30 01:55:27;;;;;;;21.58;15.38;;;;;;;;;;4905067;29;20083;-93
2023/10/30 01:57:53;;;;;;;20.40;16.00;;;;;;;;;;4924534;29;20043;-92
2023/10/30 02:00:23;;;;;;;16.45;13.05;;;;;;;;;;4929837;29;20098;-92
2023/10/30 02:02:59;;;;;;;14.70;12.48;;;;;;;;;;4929487;29;20529;-92
2023/10/30 02:05:27;;;;;;;19.00;13.25;;;;;;;;;;4924760;29;20032;-92
2023/10/30 02:07:58;;;;;;;12.18;10.95;;;;;;;;;;4920519;29;20035;-91
2023/10/30 02:10:27;;;;;;;15.15;12.00;;;;;;;;;;4920785;29;20036;-93
2023/10/30 02:12:53;;;;;;;21.55;14.55;;;;;;;;;;4920784;29;20026;-91
2023/10/30 02:15:22;;;;;;;18.73;12.13;;;;;;;;;;4920959;29;20035;-92
2023/10/30 02:17:48;;;;;;;23.75;14.85;;;;;;;;;;4920840;29;20382;-91
2023/10/30 02:20:18;;;;;;;18.63;13.18;;;;;;;;;;4921146;29;20067;-92
2023/10/30 02:22:46;;;;;;;15.27;9.95;;;;;;;;;;5254548;23;20544;-92
2023/10/30 02:25:13;;;;;;;14.13;11.45;;;;;;;;;;4940210;29;20056;-92
2023/10/30 02:27:42;;;;;;;12.55;9.93;;;;;;;;;;4936937;29;20076;-92
2023/10/30 02:30:12;;;;;;;17.40;12.95;;;;;;;;;;4936723;29;20162;-93
2023/10/30 02:32:47;;;;;;;19.70;13.30;;;;;;;;;;4936860;29;20070;-93
2023/10/30 02:35:17;;;;;;;19.85;13.75;;;;;;;;;;4945680;29;20046;-91
2023/10/30 02:37:46;;;;;;;20.75;15.13;;;;;;;;;;4939490;29;20039;-93
2023/10/30 02:40:23;;;;;;;15.48;11.70;;;;;;;;;;4936296;29;20454;-92
2023/10/30 02:42:58;;;;;;;20.50;12.25;;;;;;;;;;4936707;29;20035;-93
2023/10/30 02:45:27;;;;;;;17.63;11.55;;;;;;;;;;4936869;29;20040;-92
2023/10/30 02:47:53;;;;;;;14.05;10.32;;;;;;;;;;4936346;29;20027;-92
2023/10/30 02:50:22;;;;;;;9.93;7.22;;;;;;;;;;4936753;29;20054;-92
2023/10/30 02:52:57;;;;;;;19.38;12.02;;;;;;;;;;4936330;29;20028;-92
2023/10/30 02:55:32;;;;;;;16.77;11.93;;;;;;;;;;4936526;29;20035;-94
2023/10/30 02:58:07;;;;;;;13.05;11.68;;;;;;;;;;4936470;29;20035;-93
2023/10/30 03:00:36;;;;;;;16.83;14.40;;;;;;;;;;4936633;29;20091;-91
2023/10/30 03:03:02;;;;;;;14.05;11.35;;;;;;;;;;4936515;29;20035;-92
2023/10/30 03:05:37;;;;;;;14.82;11.13;;;;;;;;;;4938136;29;20401;-93
2023/10/30 03:08:06;;;;;;;20.42;13.18;;;;;;;;;;4922672;29;20028;-93
2023/10/30 03:10:33;;;;;;;15.20;11.45;;;;;;;;;;4921010;29;20032;-91
2023/10/30 03:13:01;;;;;;;9.07;8.18;;;;;;;;;;4920701;29;20029;-93
2023/10/30 03:15:28;;;;;;;20.63;13.38;;;;;;;;;;4925200;29;20065;-92
2023/10/30 03:17:56;;;;;;;16.13;10.98;;;;;;;;;;4939798;29;20043;-91
2023/10/30 03:20:23;;;;;;;19.00;12.23;;;;;;;;;;4929216;29;20113;-91
2023/10/30 03:23:07;;;;;;;15.95;11.95;;;;;;;;;;4920795;29;20055;-92
2023/10/30 03:25:42;;;;;;;10.95;9.85;;;;;;;;;;4920833;29;20140;-92
2023/10/30 03:28:08;;;;;;;16.80;10.77;;;;;;;;;;4921790;29;20035;-91
2023/10/30 03:30:38;;;;;;;19.25;12.73;;;;;;;;;;4939476;29;20072;-91
2023/10/30 03:33:05;;;;;;;18.50;14.05;;;;;;;;;;4938768;29;20086;-93
2023/10/30 03:35:34;;;;;;;18.70;13.63;;;;;;;;;;4936976;29;20058;-91
2023/10/30 03:38:00;;;;;;;18.02;12.48;;;;;;;;;;4921387;29;20040;-91
2023/10/30 03:40:35;;;;;;;19.67;13.43;;;;;;;;;;4929409;29;20040;-92
2023/10/30 03:43:04;;;;;;;16.52;11.77;;;;;;;;;;4921072;29;20028;-93
2023/10/30 03:45:36;;;;;;;21.58;12.93;;;;;;;;;;4920531;29;20032;-93
2023/10/30 03:48:06;;;;;;;21.10;13.95;;;;;;;;;;4920999;29;20111;-92
2023/10/30 03:50:37;;;;;;;13.18;11.32;;;;;;;;;;4938737;29;20122;-92
2023/10/30 03:53:10;;;;;;;21.50;13.98;;;;;;;;;;4940219;29;20056;-93
2023/10/30 03:55:39;;;;;;;22.92;14.13;;;;;;;;;;4939235;29;20477;-93
2023/10/30 03:58:08;;;;;;;24.85;15.05;;;;;;;;;;4940313;29;20476;-92
2023/10/30 04:00:43;;;;;;;14.40;11.35;;;;;;;;;;4939181;29;20043;-91
2023/10/30 04:03:16;;;;;;;20.73;13.95;;;;;;;;;;4939241;29;20031;-92
2023/10/30 04:05:45;;;;;;;18.63;13.55;;;;;;;;;;4939614;29;20030;-92
2023/10/30 04:08:23;;;;;;;24.67;13.70;;;;;;;;;;4939623;29;20047;-93
2023/10/30 04:11:01;;;;;;;21.48;12.25;;;;;;;;;;4947579;29;20015;-93
2023/10/30 04:13:31;;;;;;;22.17;11.77;;;;;;;;;;4945876;29;20040;-92
2023/10/30 04:16:00;;;;;;;22.90;13.13;;;;;;;;;;4940484;29;20028;-91
2023/10/30 04:18:31;;;;;;;21.35;14.32;;;;;;;;;;4939357;29;20043;-92
2023/10/30 04:21:12;;;;;;;21.13;14.00;;;;;;;;;;4939628;29;20075;-92
2023/10/30 04:23:48;;;;;;;17.60;13.20;;;;;;;;;;4933415;29;20095;-92
2023/10/30 04:26:19;;;;;;;22.20;14.02;;;;;;;;;;4922518;29;20056;-92
2023/10/30 04:28:47;;;;;;;25.17;16.45;;;;;;;;;;4939198;29;20036;-92
2023/10/30 04:31:16;;;;;;;13.18;11.20;;;;;;;;;;4938619;29;20148;-92
2023/10/30 04:33:42;;;;;;;17.38;13.05;;;;;;;;;;4921219;29;20030;-92
2023/10/30 04:36:09;;;;;;;15.65;11.73;;;;;;;;;;4940070;29;20485;-92
2023/10/30 04:38:44;;;;;;;13.07;9.80;;;;;;;;;;4918062;29;20039;-93
2023/10/30 04:41:10;;;;;;;11.82;9.38;;;;;;;;;;4938967;29;20039;-93
2023/10/30 04:43:37;;;;;;;13.13;10.20;;;;;;;;;;4937960;29;20032;-93
2023/10/30 04:46:06;;;;;;;24.98;13.68;;;;;;;;;;4938721;29;20051;-91
2023/10/30 04:48:33;;;;;;;27.23;15.25;;;;;;;;;;4938820;29;20072;-91
2023/10/30 04:51:08;;;;;;;19.80;12.82;;;;;;;;;;4937634;29;20029;-92
2023/10/30 04:53:37;;;;;;;16.27;11.82;;;;;;;;;;4938084;29;20044;-91
2023/10/30 04:56:04;;;;;;;13.10;10.50;;;;;;;;;;4932787;29;20371;-92
2023/10/30 04:58:30;;;;;;;16.02;11.68;;;;;;;;;;4881003;29;20049;-91
2023/10/30 05:00:59;;;;;;;20.13;14.10;;;;;;;;;;4985891;23;20035;-91
2023/10/30 05:03:28;;;;;;;12.98;11.57;;;;;;;;;;5593228;23;20036;-93
2023/10/30 05:06:01;;;;;;;27.27;14.80;;;;;;;;;;4955487;29;20027;-91
2023/10/30 05:08:30;;;;;;;16.48;12.57;;;;;;;;;;4948411;29;20502;-92
2023/10/30 05:10:56;;;;;;;20.08;15.10;;;;;;;;;;4941563;29;20039;-91
2023/10/30 05:13:31;;;;;;;20.38;13.52;;;;;;;;;;4928255;29;20028;-91
2023/10/30 05:16:00;;;;;;;16.23;11.13;;;;;;;;;;4922753;29;20031;-91
2023/10/30 05:18:31;;;;;;;21.95;14.35;;;;;;;;;;4922520;29;20035;-92
2023/10/30 05:21:03;;;;;;;15.65;11.07;;;;;;;;;;4923464;29;20034;-91
2023/10/30 05:23:29;;;;;;;13.13;9.07;;;;;;;;;;4922792;29;20035;-90
2023/10/30 05:25:59;;;;;;;21.40;13.05;;;;;;;;;;4923411;29;20087;-90
2023/10/30 05:28:25;;;;;;;18.23;13.57;;;;;;;;;;4925475;29;20024;-91
2023/10/30 05:31:00;;;;;;;24.73;13.50;;;;;;;;;;4941530;29;20031;-92
2023/10/30 05:33:29;;;;;;;16.38;11.88;;;;;;;;;;4941571;29;20019;-92
2023/10/30 05:36:04;;;;;;;16.15;9.93;;;;;;;;;;4934457;29;20432;-92
2023/10/30 05:38:39;;;;;;;18.30;11.63;;;;;;;;;;4922480;29;20032;-92
2023/10/30 05:41:14;;;;;;;22.02;13.65;;;;;;;;;;4921823;29;20028;-92
2023/10/30 05:43:50;;;;;;;28.50;14.82;;;;;;;;;;4922174;29;20024;-91
2023/10/30 05:46:19;;;;;;;28.42;13.60;;;;;;;;;;4922680;29;20034;-91
2023/10/30 05:48:45;;;;;;;21.17;13.50;;;;;;;;;;4925986;29;20031;-92
2023/10/30 05:51:14;;;;;;;23.42;14.63;;;;;;;;;;4933143;29;20094;-91
2023/10/30 05:53:43;;;;;;;21.65;13.30;;;;;;;;;;4922225;29;20465;-93
2023/10/30 05:56:10;;;;;;;18.20;12.38;;;;;;;;;;4921918;29;20023;-92
2023/10/30 05:58:48;;;;;;;24.67;14.32;;;;;;;;;;4922059;29;20531;-92
2023/10/30 06:01:29;;;;;;;22.75;15.38;;;;;;;;;;5051367;23;20094;-91
2023/10/30 06:03:58;;;;;;;17.35;14.00;;;;;;;;;;4927573;29;20023;-93
2023/10/30 06:06:30;;;;;;;20.95;14.52;;;;;;;;;;4921510;29;20445;-91
2023/10/30 06:09:00;;;;;;;28.20;16.55;;;;;;;;;;4916135;29;20039;-91
2023/10/30 06:11:28;;;;;;;24.23;15.93;;;;;;;;;;4922019;29;20056;-92
2023/10/30 06:14:03;;;;;;;20.50;15.20;;;;;;;;;;4922764;29;20020;-91
2023/10/30 06:16:30;;;;;;;28.10;18.00;;;;;;;;;;4921852;29;20378;-92
2023/10/30 06:18:58;;;;;;;19.80;15.38;;;;;;;;;;4921311;29;20060;-92
2023/10/30 06:21:27;;;;;;;23.98;16.30;;;;;;;;;;4908646;29;20027;-92
2023/10/30 06:23:53;;;;;;;27.70;17.58;;;;;;;;;;4902349;29;20040;-92
2023/10/30 06:26:23;;;;;;;27.02;16.40;;;;;;;;;;4902610;29;20123;-92
2023/10/30 06:29:08;;;;;;;27.92;19.30;;;;;;;;;;4902442;29;20032;-92
2023/10/30 06:31:47;;;;;;;32.38;21.27;;;;;;;;;;4903101;29;20028;-91
2023/10/30 06:37:15;;;;;;;30.60;18.60;;;;;;;;;;4901966;29;20047;-92
2023/10/30 06:39:42;;;;;;;24.00;14.23;;;;;;;;;;4867227;29;20061;-91
2023/10/30 06:42:08;;;;;;;22.42;15.05;;;;;;;;;;4865743;29;20062;-92
2023/10/30 06:44:37;;;;;;;29.40;14.68;;;;;;;;;;4870389;29;20029;-92
2023/10/30 06:47:07;;;;;;;25.80;16.33;;;;;;;;;;4872814;29;20416;-91
2023/10/30 06:49:37;;;;;;;25.15;18.20;;;;;;;;;;4866155;29;20050;-92
2023/10/30 06:52:21;;;;;;;26.20;16.45;;;;;;;;;;4866031;29;20048;-92
2023/10/30 06:54:53;;;;;;;22.90;16.40;;;;;;;;;;4865614;29;20034;-92
2023/10/30 06:57:22;;;;;;;24.95;15.52;;;;;;;;;;4849737;29;20044;-93
2023/10/30 06:59:54;;;;;;;27.30;16.13;;;;;;;;;;4862463;29;20049;-93
2023/10/30 07:02:23;;;;;;;29.88;17.98;;;;;;;;;;4844429;29;20054;-91
2023/10/30 07:04:58;;;;;;;21.90;10.98;;;;;;;;;;4871112;29;20486;-93
2023/10/30 07:07:27;;;;;;;17.30;11.95;;;;;;;;;;4868338;29;20116;-92
2023/10/30 07:09:53;;;;;;;17.45;11.68;;;;;;;;;;4871341;29;20037;-92
2023/10/30 07:12:19;;;;;;;19.65;12.48;;;;;;;;;;4900189;29;20028;-92
2023/10/30 07:14:47;;;;;;;26.45;12.65;;;;;;;;;;4887216;29;20108;-91
2023/10/30 07:17:17;;;;;;;15.85;10.75;;;;;;;;;;4886795;29;20029;-91
2023/10/30 07:19:48;;;;;;;14.10;10.35;;;;;;;;;;4886445;29;20052;-92
2023/10/30 07:22:26;;;;;;;14.52;9.27;;;;;;;;;;4902185;29;20028;-92
2023/10/30 07:24:52;;;;;;;11.32;8.48;;;;;;;;;;4906878;29;20043;-92
2023/10/30 07:27:18;;;;;;;13.38;8.63;;;;;;;;;;4922109;29;20540;-92
2023/10/30 07:29:53;;;;;;;11.18;7.70;;;;;;;;;;4920273;29;20035;-91
2023/10/30 07:32:19;;;;;;;14.98;8.20;;;;;;;;;;4918233;29;20033;-92
2023/10/30 07:34:50;;;;;;;11.80;8.77;;;;;;;;;;4882550;29;20089;-93
2023/10/30 07:37:27;;;;;;;11.52;7.70;;;;;;;;;;4883995;29;20471;-92
2023/10/30 07:39:56;;;;;;;11.55;8.35;;;;;;;;;;4884326;29;20041;-92
2023/10/30 07:42:28;;;;;;;11.75;6.80;;;;;;;;;;4885794;29;20036;-92
2023/10/30 07:44:54;;;;;;;14.38;7.63;;;;;;;;;;4902897;29;20048;-92
2023/10/30 07:47:20;;;;;;;10.18;6.63;;;;;;;;;;4902519;29;20025;-91
2023/10/30 07:50:09;;;;;;;10.25;5.57;;;;;;;;;;4904404;29;20044;-91
2023/10/30 07:52:35;;;;;;;13.02;7.85;;;;;;;;;;5000790;23;20058;-93
2023/10/30 07:55:05;;;;;;;10.60;7.18;;;;;;;;;;4931861;29;20477;-92
2023/10/30 07:57:42;;;;;;;12.20;6.30;;;;;;;;;;4928518;29;20042;-93
2023/10/30 08:00:08;;;;;;;14.60;5.47;;;;;;;;;;4930685;29;20059;-92
2023/10/30 08:03:01;;;;;;;10.93;5.47;;;;;;;;;;4927998;29;20012;-91
2023/10/30 08:05:45;;;;;;;8.52;5.70;;;;;;;;;;5020437;23;20051;-92
2023/10/30 08:08:17;;;;;;;9.75;6.22;;;;;;;;;;4963082;28;20055;-92
2023/10/30 08:10:56;;;;;;;10.05;6.07;;;;;;;;;;4976633;28;20043;-93
2023/10/30 08:13:22;;;;;;;15.57;7.55;;;;;;;;;;4966610;28;20085;-92
2023/10/30 08:15:48;;;;;;;11.38;6.07;;;;;;;;;;4961262;28;20026;-92
2023/10/30 08:18:25;;;;;;;15.88;7.03;;;;;;;;;;4960834;28;20045;-92
2023/10/30 08:20:57;;;;;;;11.23;6.28;;;;;;;;;;4958312;28;20058;-92
2023/10/30 08:23:23;;;;;;;11.10;6.40;;;;;;;;;;4961003;28;20069;-91
2023/10/30 08:25:51;;;;;;;10.75;6.25;;;;;;;;;;4961145;28;20030;-93
2023/10/30 08:28:21;;;;;;;15.52;6.82;;;;;;;;;;4960917;28;20121;-92
2023/10/30 08:30:53;;;;;;;10.23;6.15;;;;;;;;;;4963177;28;20026;-92
2023/10/30 08:33:19;;;;;;;9.70;6.80;;;;;;;;;;4960029;28;20034;-91
2023/10/30 08:36:05;;;;;;;10.70;5.88;;;;;;;;;;4960535;28;20046;-91
2023/10/30 08:38:39;;;;;;;9.27;5.78;;;;;;;;;;4970081;28;20114;-93
2023/10/30 08:44:15;;;;;;;9.45;5.78;;;;;;;;;;4937457;29;20535;-92
2023/10/30 08:46:41;;;;;;;14.73;5.30;;;;;;;;;;4902424;29;20042;-92
2023/10/30 08:49:07;;;;;;;8.10;3.75;;;;;;;;;;4902551;29;20265;-92
2023/10/30 08:51:42;;;;;;;6.97;5.50;;;;;;;;;;4902368;29;20149;-91
2023/10/30 08:54:11;;;;;;;10.18;6.72;;;;;;;;;;4902446;29;20024;-92
2023/10/30 08:56:42;;;;;;;11.57;7.47;;;;;;;;;;4902776;29;20040;-91
2023/10/30 08:59:14;;;;;;;9.50;5.20;;;;;;;;;;4912785;29;20076;-91
2023/10/30 09:01:51;;;;;;;9.68;6.07;;;;;;;;;;4902022;29;20036;-91
2023/10/30 09:04:28;;;;;;;6.03;4.97;;;;;;;;;;4915439;29;20036;-92
2023/10/30 09:07:06;;;;;;;10.00;5.03;;;;;;;;;;4921060;29;20083;-91
2023/10/30 09:09:50;;;;;;;10.23;7.13;;;;;;;;;;4920672;29;20554;-91
2023/10/30 09:12:28;;;;;;;12.25;10.95;;;;;;;;;;4932760;29;20043;-92
2023/10/30 09:15:07;;;;;;;12.35;10.52;;;;;;;;;;4940657;29;20028;-91
2023/10/30 09:17:42;;;;;;;12.40;9.50;;;;;;;;;;4941113;29;20034;-92
2023/10/30 09:20:12;;;;;;;8.45;5.70;;;;;;;;;;4940527;29;20373;-92
2023/10/30 09:22:41;;;;;;;6.93;4.72;;;;;;;;;;4952191;29;20043;-92
2023/10/30 09:25:10;;;;;;;9.15;4.65;;;;;;;;;;4956576;29;20035;-92
2023/10/30 09:27:39;;;;;;;7.78;4.30;;;;;;;;;;4956715;28;20489;-92
2023/10/30 09:30:16;;;;;;;13.60;4.28;;;;;;;;;;4956439;29;20218;-93
2023/10/30 09:32:45;;;;;;;7.55;3.72;;;;;;;;;;4956410;29;20031;-92
2023/10/30 09:35:11;;;;;;;6.45;3.60;;;;;;;;;;4956326;29;20042;-92
2023/10/30 09:37:40;;;;;;;9.25;3.72;;;;;;;;;;4957269;28;20034;-92
2023/10/30 09:40:13;;;;;;;8.40;3.50;;;;;;;;;;4976700;28;20137;-91
2023/10/30 09:42:52;;;;;;;8.40;3.60;;;;;;;;;;4963943;28;20035;-91
2023/10/30 09:45:25;;;;;;;8.70;3.58;;;;;;;;;;4940450;29;20057;-92
2023/10/30 09:47:54;;;;;;;;;;;;;;;;;;4940482;29;20027;-92
2023/10/30 09:50:33;;;;;;;6.93;3.70;;;;;;;;;;4940602;29;19989;-92
2023/10/30 09:53:08;;;;;;;10.32;3.33;;;;;;;;;;4944465;29;20030;-91
2023/10/30 09:55:46;;;;;;;7.68;3.50;;;;;;;;;;4943346;29;20130;-92
2023/10/30 09:58:12;;;;;;;;;;;;;;;;;;4940689;29;20035;-93
2023/10/30 10:00:42;;;;;;;5.65;2.30;;;;;;;;;;4941940;28;19915;-93
2023/10/30 10:06:03;;;;;;;7.32;2.15;;;;;;;;;;4969215;28;20051;-92
2023/10/30 10:08:32;;;;;;;4.18;2.17;;;;;;;;;;4943195;29;20031;-92
2023/10/30 10:11:07;;;;;;;5.18;2.28;;;;;;;;;;4939707;29;20061;-93
2023/10/30 10:13:38;;;;;;;5.85;2.40;;;;;;;;;;4939953;29;20035;-92
2023/10/30 10:16:07;;;;;;;7.47;2.95;;;;;;;;;;4939830;29;20435;-92
2023/10/30 10:18:37;;;;;;;7.45;2.85;;;;;;;;;;4939931;29;20031;-92
2023/10/30 10:21:27;;;;;;;6.47;2.60;;;;;;;;;;4939886;29;20039;-91
2023/10/30 10:23:56;;;;;;;6.20;3.05;;;;;;;;;;4939876;29;20404;-91
2023/10/30 10:26:32;;;;;;;6.22;3.13;;;;;;;;;;4939562;29;20047;-92
2023/10/30 10:29:01;;;;;;;5.50;3.10;;;;;;;;;;4942346;29;20027;-93
2023/10/30 10:31:28;;;;;;;6.55;2.53;;;;;;;;;;4953998;28;20023;-93
2023/10/30 10:33:54;;;;;;;4.78;2.22;;;;;;;;;;4958858;28;20031;-92
2023/10/30 10:36:33;;;;;;;6.32;2.22;;;;;;;;;;4955836;28;20030;-92
2023/10/30 10:39:05;;;;;;;8.63;2.30;;;;;;;;;;4939470;29;20078;-92
2023/10/30 10:41:42;;;;;;;5.57;2.00;;;;;;;;;;4939769;29;20556;-92
2023/10/30 10:44:23;;;;;;;7.28;2.20;;;;;;;;;;4939593;29;20019;-92
2023/10/30 10:46:56;;;;;;;3.85;1.70;;;;;;;;;;4939451;29;20031;-93
2023/10/30 10:49:29;;;;;;;6.07;2.20;;;;;;;;;;4939239;29;20511;-91
2023/10/30 10:51:58;;;;;;;4.18;1.95;;;;;;;;;;4934668;28;20031;-91
2023/10/30 10:54:35;;;;;;;7.35;1.92;;;;;;;;;;4939066;29;20024;-92
2023/10/30 10:57:03;;;;;;;5.70;1.73;;;;;;;;;;4955462;29;20063;-92
2023/10/30 10:59:33;;;;;;;4.30;1.73;;;;;;;;;;4933431;29;20125;-92
2023/10/30 11:02:03;;;;;;;5.13;1.55;;;;;;;;;;4925422;29;20020;-92
2023/10/30 11:04:33;;;;;;;5.22;1.85;;;;;;;;;;4932391;29;20141;-91
2023/10/30 11:07:02;;;;;;;8.27;1.70;;;;;;;;;;4908259;29;20213;-93
2023/10/30 11:09:44;;;;;;;4.55;1.63;;;;;;;;;;4903551;29;20050;-92
2023/10/30 11:12:27;;;;;;;4.53;1.58;;;;;;;;;;4901190;29;20032;-92
2023/10/30 11:15:35;;;;;;;5.53;2.03;;;;;;;;;;4900774;29;20036;-92
2023/10/30 11:18:21;;;;;;;6.60;1.75;;;;;;;;;;4844797;29;20041;-91
2023/10/30 11:20:51;;;;;;;6.03;2.17;;;;;;;;;;4841999;29;20046;-91
2023/10/30 11:23:42;;;;;;;4.55;1.70;;;;;;;;;;4881855;29;20056;-91
2023/10/30 11:26:11;;;;;;;5.80;2.00;;;;;;;;;;4901537;29;20127;-92
2023/10/30 11:28:37;;;;;;;7.78;2.00;;;;;;;;;;4905064;29;20095;-91
2023/10/30 11:31:11;;;;;;;7.20;1.95;;;;;;;;;;4929589;29;20063;-91
2023/10/30 11:33:43;;;;;;;6.72;2.13;;;;;;;;;;4937065;29;20044;-91
2023/10/30 11:39:19;;;;;;;5.78;2.20;;;;;;;;;;4939128;29;20511;-92
2023/10/30 11:41:53;;;;;;;8.27;1.98;;;;;;;;;;4938690;29;20028;-92
2023/10/30 11:44:28;;;;;;;5.65;1.85;;;;;;;;;;4924325;29;20051;-92
2023/10/30 11:46:58;;;;;;;6.68;2.05;;;;;;;;;;4927138;29;20039;-93
2023/10/30 11:49:38;;;;;;;3.72;1.80;;;;;;;;;;4930935;29;20055;-91
2023/10/30 11:52:27;;;;;;;9.90;2.25;;;;;;;;;;4935129;29;20038;-92
2023/10/30 11:54:56;;;;;;;6.38;2.20;;;;;;;;;;4928971;29;20039;-93
2023/10/30 11:57:29;;;;;;;6.30;2.10;;;;;;;;;;4956611;28;20072;-92
2023/10/30 11:59:58;;;;;;;5.13;1.97;;;;;;;;;;4961684;28;20047;-93
2023/10/30 12:02:24;;;;;;;8.60;1.90;;;;;;;;;;4961960;28;20275;-92
2023/10/30 12:05:04;;;;;;;6.18;2.17;;;;;;;;;;4961381;28;20074;-91
2023/10/30 12:07:30;;;;;;;5.25;2.20;;;;;;;;;;4961633;28;20109;-92
2023/10/30 12:09:59;;;;;;;6.28;1.98;;;;;;;;;;4961465;28;20379;-92
2023/10/30 12:12:33;;;;;;;4.85;1.70;;;;;;;;;;4961278;28;20034;-92
2023/10/30 12:14:59;;;;;;;5.43;2.28;;;;;;;;;;4961643;28;20071;-92
2023/10/30 12:17:31;;;;;;;8.45;3.10;;;;;;;;;;4947184;28;20071;-92
2023/10/30 12:19:57;;;;;;;5.63;2.08;;;;;;;;;;4942239;29;20191;-92
2023/10/30 12:22:23;;;;;;;5.45;2.30;;;;;;;;;;4942479;29;20031;-92
2023/10/30 12:27:47;;;;;;;6.28;1.98;;;;;;;;;;4948894;28;20027;-92
2023/10/30 12:30:15;;;;;;;5.50;1.90;;;;;;;;;;4941721;29;20035;-91
2023/10/30 12:33:02;;;;;;;6.97;2.05;;;;;;;;;;4941885;29;20504;-91
2023/10/30 12:35:34;;;;;;;5.75;2.40;;;;;;;;;;4941926;29;20031;-93
2023/10/30 12:38:20;;;;;;;6.35;1.98;;;;;;;;;;4940387;29;20614;-91
2023/10/30 12:40:53;;;;;;;5.88;2.03;;;;;;;;;;4941339;29;20039;-92
2023/10/30 12:43:25;;;;;;;5.60;2.13;;;;;;;;;;4941918;29;20495;-92
2023/10/30 12:45:54;;;;;;;5.53;2.28;;;;;;;;;;4942208;29;20027;-92
2023/10/30 12:51:27;;;;;;;5.65;1.92;;;;;;;;;;4954919;29;20046;-91
2023/10/30 12:54:01;;;;;;;5.65;2.13;;;;;;;;;;4942783;29;20031;-91
2023/10/30 12:56:30;;;;;;;8.07;1.92;;;;;;;;;;4942685;29;20038;-91
2023/10/30 12:58:59;;;;;;;4.90;1.90;;;;;;;;;;4942178;29;20085;-92
2023/10/30 13:01:28;;;;;;;7.78;2.17;;;;;;;;;;4942638;29;20548;-91
2023/10/30 13:03:58;;;;;;;6.20;1.98;;;;;;;;;;4953229;28;20031;-90
2023/10/30 13:06:27;;;;;;;8.77;1.85;;;;;;;;;;4959399;28;20043;-92
2023/10/30 13:12:11;;;;;;;5.32;2.05;;;;;;;;;;4977507;28;20078;-92
2023/10/30 13:14:37;;;;;;;4.47;2.08;;;;;;;;;;4959584;28;20027;-92
2023/10/30 13:17:03;;;;;;;6.93;1.85;;;;;;;;;;4940530;29;20031;-92
2023/10/30 13:19:30;;;;;;;5.00;2.13;;;;;;;;;;4940730;29;20039;-92
2023/10/30 13:21:59;;;;;;;7.38;1.95;;;;;;;;;;4941222;29;20023;-91
2023/10/30 13:24:28;;;;;;;7.47;2.00;;;;;;;;;;4962986;29;20027;-91
2023/10/30 13:26:55;;;;;;;3.70;1.83;;;;;;;;;;4941556;29;20031;-92
2023/10/30 13:29:27;;;;;;;5.45;2.15;;;;;;;;;;4939827;29;20552;-91
2023/10/30 13:32:14;;;;;;;4.45;2.15;;;;;;;;;;4956719;28;20109;-91
2023/10/30 13:34:43;;;;;;;7.43;1.85;;;;;;;;;;4959762;28;20058;-92
2023/10/30 13:40:20;;;;;;;6.53;2.13;;;;;;;;;;4966676;28;20039;-92
2023/10/30 13:42:52;;;;;;;7.82;2.50;;;;;;;;;;4939868;29;20039;-92
2023/10/30 13:45:24;;;;;;;5.80;2.67;;;;;;;;;;4939834;29;20536;-93
2023/10/30 13:48:00;;;;;;;6.93;2.30;;;;;;;;;;4940093;29;20491;-93
2023/10/30 13:50:26;;;;;;;6.47;2.15;;;;;;;;;;4939663;29;20050;-92
2023/10/30 13:52:55;;;;;;;6.05;2.40;;;;;;;;;;4947744;29;20026;-92
2023/10/30 13:55:25;;;;;;;4.35;2.20;;;;;;;;;;4939656;29;20129;-92
2023/10/30 13:57:51;;;;;;;4.90;2.40;;;;;;;;;;4956435;28;20018;-92
2023/10/30 14:00:31;;;;;;;6.25;1.73;;;;;;;;;;4982519;28;20033;-92
2023/10/30 14:03:10;;;;;;;4.50;1.75;;;;;;;;;;4958154;28;20035;-92
2023/10/30 14:07:01;;;;;;;5.13;1.80;;;;;;;;;;5093429;27;20464;-92
2023/10/30 14:09:34;;;;;;;5.03;1.90;;;;;;;;;;5108758;28;20028;-92
2023/10/30 14:12:10;;;;;;;5.70;1.60;;;;;;;;;;5112178;28;20100;-93
2023/10/30 14:14:39;;;;;;;4.15;1.70;;;;;;;;;;5096457;28;20056;-92
2023/10/30 14:17:07;;;;;;;4.72;1.60;;;;;;;;;;5091707;28;20016;-92
2023/10/30 14:19:33;;;;;;;4.13;1.27;;;;;;;;;;5091730;28;20530;-92
2023/10/30 14:22:02;;;;;;;3.38;1.20;;;;;;;;;;5091684;28;20032;-92
2023/10/30 14:24:32;;;;;;;3.95;1.17;;;;;;;;;;5092177;28;20028;-93
2023/10/30 14:27:08;;;;;;;5.43;1.40;;;;;;;;;;5092309;28;20441;-92
2023/10/30 14:29:34;;;;;;;2.72;1.48;;;;;;;;;;5092183;28;20358;-92
2023/10/30 14:32:03;;;;;;;8.85;2.22;;;;;;;;;;5091627;28;20028;-92
2023/10/30 14:34:35;;;;;;;3.35;2.13;;;;;;;;;;5092527;28;20030;-92
2023/10/30 14:37:38;;;;;;;8.05;2.10;;;;;;;;;;5091074;28;20040;-92
2023/10/30 14:40:05;;;;;;;5.65;1.77;;;;;;;;;;5090512;28;20119;-92
2023/10/30 14:42:33;;;;;;;6.10;2.10;;;;;;;;;;5090606;28;20397;-92
2023/10/30 14:45:03;;;;;;;4.85;2.28;;;;;;;;;;5090460;28;20110;-93
2023/10/30 14:47:33;;;;;;;3.33;1.92;;;;;;;;;;5091557;28;20485;-92
2023/10/30 14:50:03;;;;;;;4.75;1.95;;;;;;;;;;5091437;28;20073;-92
2023/10/30 14:52:35;;;;;;;4.07;2.10;;;;;;;;;;5093783;28;20032;-91
2023/10/30 14:57:58;;;;;;;5.22;3.40;;;;;;;;;;5067246;28;20091;-92
2023/10/30 15:00:24;;;;;;;5.57;3.70;;;;;;;;;;5070492;28;20044;-93
2023/10/30 15:02:59;;;;;;;5.72;3.30;;;;;;;;;;5074646;28;20533;-94
2023/10/30 15:05:27;;;;;;;6.03;3.20;;;;;;;;;;5067694;28;20029;-91
2023/10/30 15:07:56;;;;;;;5.68;3.17;;;;;;;;;;5082032;28;20557;-91
2023/10/30 15:10:27;;;;;;;5.28;3.40;;;;;;;;;;5091610;28;20037;-91
2023/10/30 15:12:57;;;;;;;8.48;3.30;;;;;;;;;;5091092;28;20501;-90
2023/10/30 15:15:27;;;;;;;7.53;3.47;;;;;;;;;;5098258;28;20021;-92
2023/10/30 15:17:56;;;;;;;7.72;4.25;;;;;;;;;;5060821;28;20040;-91
2023/10/30 15:20:33;;;;;;;7.47;3.50;;;;;;;;;;5057362;28;20021;-91
2023/10/30 15:23:00;;;;;;;5.85;2.78;;;;;;;;;;5057546;28;20036;-91
2023/10/30 15:25:32;;;;;;;6.57;3.00;;;;;;;;;;5060435;28;20033;-91
2023/10/30 15:27:58;;;;;;;8.90;2.95;;;;;;;;;;5057827;28;20070;-90
2023/10/30 15:30:50;;;;;;;8.02;3.35;;;;;;;;;;5058545;28;20037;-91
2023/10/30 15:33:26;;;;;;;8.95;2.50;;;;;;;;;;5057014;28;20029;-90
2023/10/30 15:35:59;;;;;;;7.95;2.60;;;;;;;;;;5058389;28;20481;-90
2023/10/30 15:38:37;;;;;;;6.03;2.83;;;;;;;;;;5058370;28;20033;-90
2023/10/30 15:41:06;;;;;;;9.82;3.25;;;;;;;;;;5058754;28;20473;-91